Time;durP1;ratioP1;P1;durP2;ratioP2;P2;SDS_P1;SDS_P2;PMS_P1;PMS_P2;Temp;Humidity;BMP_temperature;BMP_pressure;BME280_temperature;BME280_humidity;BME280_pressure;Samples;Min_cycle;Max_cycle;Signal;HPM_P1;HPM_P2
2023/04/24 00:01:00;;;;;;;39.33;17.30;;;;;;;;;;6301142;28;20189;-64
2023/04/24 00:04:03;;;;;;;34.87;16.07;;;;;;;;;;6297036;28;20197;-63
2023/04/24 00:07:06;;;;;;;30.70;15.57;;;;;;;;;;6289853;28;20282;-63
2023/04/24 00:10:08;;;;;;;34.10;16.67;;;;;;;;;;6301230;28;20189;-63
2023/04/24 00:13:09;;;;;;;30.83;15.10;;;;;;;;;;6316842;28;20304;-63
2023/04/24 00:16:10;;;;;;;38.07;16.53;;;;;;;;;;6302985;28;20193;-63
2023/04/24 00:19:12;;;;;;;35.57;15.43;;;;;;;;;;6277714;28;20193;-64
2023/04/24 00:22:14;;;;;;;39.33;16.77;;;;;;;;;;6308299;28;20185;-64
2023/04/24 00:25:15;;;;;;;35.33;15.50;;;;;;;;;;6316669;28;20250;-64
2023/04/24 00:28:16;;;;;;;32.60;15.67;;;;;;;;;;6305397;28;20295;-64
2023/04/24 00:31:17;;;;;;;31.67;16.23;;;;;;;;;;6297757;28;20184;-64
2023/04/24 00:34:18;;;;;;;32.97;14.90;;;;;;;;;;6320441;28;20240;-63
2023/04/24 00:37:19;;;;;;;32.93;15.03;;;;;;;;;;6290759;28;20192;-64
2023/04/24 00:40:20;;;;;;;28.37;15.13;;;;;;;;;;6317630;28;20188;-64
2023/04/24 00:43:21;;;;;;;39.03;15.23;;;;;;;;;;6303346;28;20216;-63
2023/04/24 00:46:22;;;;;;;37.30;16.63;;;;;;;;;;6303836;28;20192;-64
2023/04/24 00:49:23;;;;;;;36.07;16.80;;;;;;;;;;6307780;28;20188;-64
2023/04/24 00:52:25;;;;;;;36.67;17.37;;;;;;;;;;6309304;28;20192;-64
2023/04/24 00:55:26;;;;;;;35.33;15.30;;;;;;;;;;6293768;28;20193;-64
2023/04/24 00:58:27;;;;;;;34.43;16.70;;;;;;;;;;6319137;28;20193;-63
2023/04/24 01:01:28;;;;;;;41.30;16.17;;;;;;;;;;6304706;28;20199;-64
2023/04/24 01:04:29;;;;;;;43.50;18.80;;;;;;;;;;6289624;28;20201;-64
2023/04/24 01:07:31;;;;;;;49.77;18.83;;;;;;;;;;6296997;28;20219;-64
2023/04/24 01:10:33;;;;;;;44.23;19.87;;;;;;;;;;6282660;28;20203;-64
2023/04/24 01:13:34;;;;;;;43.90;18.97;;;;;;;;;;6326361;28;20236;-64
2023/04/24 01:16:38;;;;;;;37.00;16.30;;;;;;;;;;6300433;28;20196;-64
2023/04/24 01:19:39;;;;;;;37.13;16.73;;;;;;;;;;6297990;28;20233;-64
2023/04/24 01:22:41;;;;;;;41.57;19.07;;;;;;;;;;6307467;28;20496;-64
2023/04/24 01:25:42;;;;;;;41.40;17.60;;;;;;;;;;6288468;28;20192;-64
2023/04/24 01:28:43;;;;;;;38.60;17.70;;;;;;;;;;6294682;28;20193;-64
2023/04/24 01:31:44;;;;;;;39.93;17.93;;;;;;;;;;6311822;28;20197;-63
2023/04/24 01:34:45;;;;;;;35.07;18.03;;;;;;;;;;6306920;28;20236;-63
2023/04/24 01:37:46;;;;;;;46.17;18.73;;;;;;;;;;6290769;28;20224;-64
2023/04/24 01:40:48;;;;;;;41.77;17.80;;;;;;;;;;6313748;28;20197;-64
2023/04/24 01:43:49;;;;;;;44.40;18.53;;;;;;;;;;6311477;28;20217;-64
2023/04/24 01:46:51;;;;;;;43.40;18.33;;;;;;;;;;6281688;28;20189;-64
2023/04/24 01:49:52;;;;;;;43.40;18.67;;;;;;;;;;6312259;28;20189;-64
2023/04/24 01:52:53;;;;;;;45.97;17.63;;;;;;;;;;6311322;28;20240;-64
2023/04/24 01:55:54;;;;;;;43.73;17.47;;;;;;;;;;6296688;28;20282;-64
2023/04/24 01:58:55;;;;;;;37.47;17.90;;;;;;;;;;6301362;28;20200;-64
2023/04/24 02:01:56;;;;;;;43.73;19.73;;;;;;;;;;6303301;28;20191;-64
2023/04/24 02:04:57;;;;;;;46.10;18.03;;;;;;;;;;6295179;28;20276;-63
2023/04/24 02:07:58;;;;;;;31.70;14.13;;;;;;;;;;6302496;28;20193;-64
2023/04/24 02:11:01;;;;;;;39.23;17.40;;;;;;;;;;6275660;28;20200;-64
2023/04/24 02:14:02;;;;;;;40.50;16.97;;;;;;;;;;6308693;28;20209;-64
2023/04/24 02:17:04;;;;;;;35.40;15.63;;;;;;;;;;6315398;28;20243;-64
2023/04/24 02:20:06;;;;;;;34.73;16.40;;;;;;;;;;6288922;28;20209;-64
2023/04/24 02:23:07;;;;;;;39.77;16.53;;;;;;;;;;6302492;28;20197;-64
2023/04/24 02:26:09;;;;;;;32.67;15.33;;;;;;;;;;6284326;28;20276;-64
2023/04/24 02:29:10;;;;;;;31.73;16.60;;;;;;;;;;6290057;28;20547;-64
2023/04/24 02:32:11;;;;;;;35.00;16.87;;;;;;;;;;6304755;28;20196;-64
2023/04/24 02:35:12;;;;;;;41.57;17.83;;;;;;;;;;6293984;28;20286;-63
2023/04/24 02:38:13;;;;;;;46.63;18.43;;;;;;;;;;6298661;28;20189;-63
2023/04/24 02:41:14;;;;;;;45.00;16.67;;;;;;;;;;6283421;28;20247;-64
2023/04/24 02:44:17;;;;;;;37.87;16.37;;;;;;;;;;6282302;28;20193;-64
2023/04/24 02:47:18;;;;;;;38.30;17.03;;;;;;;;;;6298241;28;20215;-63
2023/04/24 02:50:19;;;;;;;33.27;16.03;;;;;;;;;;6321601;28;20188;-63
2023/04/24 02:53:20;;;;;;;34.37;15.90;;;;;;;;;;6308268;28;20217;-63
2023/04/24 02:56:21;;;;;;;31.60;15.57;;;;;;;;;;6295487;28;20188;-63
2023/04/24 02:59:22;;;;;;;42.53;17.47;;;;;;;;;;6283994;28;20181;-63
2023/04/24 03:02:23;;;;;;;45.70;18.03;;;;;;;;;;6291131;28;20204;-63
2023/04/24 03:05:24;;;;;;;41.37;16.93;;;;;;;;;;6310475;28;20196;-63
2023/04/24 03:08:25;;;;;;;47.67;17.87;;;;;;;;;;6295165;28;20185;-63
2023/04/24 03:11:26;;;;;;;41.97;18.20;;;;;;;;;;6307691;28;20216;-63
2023/04/24 03:14:27;;;;;;;48.47;19.30;;;;;;;;;;6284943;28;20220;-64
2023/04/24 03:17:28;;;;;;;52.80;21.43;;;;;;;;;;6279221;28;20184;-63
2023/04/24 03:20:29;;;;;;;38.20;17.17;;;;;;;;;;6309316;28;20190;-64
2023/04/24 03:23:31;;;;;;;47.77;19.37;;;;;;;;;;6281901;28;20246;-64
2023/04/24 03:26:32;;;;;;;69.57;23.07;;;;;;;;;;6276996;28;20208;-64
2023/04/24 03:29:33;;;;;;;42.50;19.30;;;;;;;;;;6301035;28;20221;-64
2023/04/24 03:32:34;;;;;;;67.70;22.23;;;;;;;;;;6311016;28;20198;-64
2023/04/24 03:35:36;;;;;;;58.40;23.27;;;;;;;;;;6299512;28;21197;-64
2023/04/24 03:38:37;;;;;;;44.70;20.47;;;;;;;;;;6293379;28;20201;-64
2023/04/24 03:41:38;;;;;;;58.40;20.87;;;;;;;;;;6283374;28;20187;-64
2023/04/24 03:44:39;;;;;;;57.00;19.80;;;;;;;;;;6299826;28;20192;-64
2023/04/24 03:47:40;;;;;;;71.03;22.33;;;;;;;;;;6279155;28;20196;-64
2023/04/24 03:50:41;;;;;;;57.73;20.53;;;;;;;;;;6302936;28;20195;-64
2023/04/24 03:53:42;;;;;;;68.33;22.77;;;;;;;;;;6302373;28;20220;-64
2023/04/24 03:56:43;;;;;;;59.53;21.57;;;;;;;;;;6291810;28;20188;-63
2023/04/24 03:59:44;;;;;;;60.73;22.47;;;;;;;;;;6296827;28;20270;-63
2023/04/24 04:02:45;;;;;;;40.80;18.67;;;;;;;;;;6298245;28;20233;-63
2023/04/24 04:05:46;;;;;;;66.37;23.40;;;;;;;;;;6276929;28;20279;-62
2023/04/24 04:08:47;;;;;;;84.13;25.33;;;;;;;;;;6296923;28;20189;-63
2023/04/24 04:11:48;;;;;;;79.60;25.37;;;;;;;;;;6293732;28;20231;-63
2023/04/24 04:14:49;;;;;;;77.87;25.33;;;;;;;;;;6307365;28;20212;-63
2023/04/24 04:17:50;;;;;;;63.80;20.60;;;;;;;;;;6303162;28;20192;-62
2023/04/24 04:20:51;;;;;;;54.63;20.87;;;;;;;;;;6297475;28;20200;-63
2023/04/24 04:23:52;;;;;;;68.20;23.70;;;;;;;;;;6304345;28;20203;-62
2023/04/24 04:26:57;;;;;;;62.67;22.83;;;;;;;;;;6290981;28;20197;-62
2023/04/24 04:30:04;;;;;;;68.20;21.73;;;;;;;;;;6308012;28;20288;-64
2023/04/24 04:33:05;;;;;;;60.17;21.90;;;;;;;;;;6296453;28;20213;-63
2023/04/24 04:36:06;;;;;;;62.03;23.10;;;;;;;;;;6307061;28;20243;-63
2023/04/24 04:39:07;;;;;;;46.03;20.77;;;;;;;;;;6284438;28;20276;-63
2023/04/24 04:42:08;;;;;;;56.50;21.53;;;;;;;;;;6311515;28;20193;-63
2023/04/24 04:45:11;;;;;;;49.37;19.60;;;;;;;;;;6289205;28;20637;-63
2023/04/24 04:48:13;;;;;;;56.90;20.13;;;;;;;;;;6313489;28;20217;-63
2023/04/24 04:51:14;;;;;;;60.80;18.80;;;;;;;;;;6303040;28;20215;-63
2023/04/24 04:54:15;;;;;;;84.17;23.90;;;;;;;;;;6298178;28;20248;-63
2023/04/24 04:57:16;;;;;;;65.03;21.00;;;;;;;;;;6284153;28;20217;-63
2023/04/24 05:00:17;;;;;;;68.33;20.77;;;;;;;;;;6305442;28;20204;-63
2023/04/24 05:03:18;;;;;;;56.77;20.80;;;;;;;;;;6288124;28;20223;-63
2023/04/24 05:06:20;;;;;;;61.73;21.90;;;;;;;;;;6278545;28;20224;-63
2023/04/24 05:09:21;;;;;;;65.40;24.30;;;;;;;;;;6319301;28;20186;-63
2023/04/24 05:12:22;;;;;;;77.77;27.30;;;;;;;;;;6308478;28;20218;-63
2023/04/24 05:15:23;;;;;;;69.67;26.07;;;;;;;;;;6314663;28;20189;-63
2023/04/24 05:18:24;;;;;;;90.00;30.60;;;;;;;;;;6273768;28;20255;-63
2023/04/24 05:21:26;;;;;;;71.63;26.30;;;;;;;;;;6283998;28;20182;-63
2023/04/24 05:24:27;;;;;;;73.50;26.20;;;;;;;;;;6267661;28;20218;-63
2023/04/24 05:27:28;;;;;;;74.70;26.37;;;;;;;;;;6292392;28;20181;-63
2023/04/24 05:30:30;;;;;;;107.53;30.33;;;;;;;;;;6295514;28;20283;-63
2023/04/24 05:33:31;;;;;;;68.60;26.60;;;;;;;;;;6309677;28;20201;-63
2023/04/24 05:36:32;;;;;;;61.67;23.87;;;;;;;;;;6305076;28;20229;-63
2023/04/24 05:39:33;;;;;;;94.60;27.00;;;;;;;;;;6295782;28;20182;-63
2023/04/24 05:42:34;;;;;;;92.50;27.07;;;;;;;;;;6294764;28;20655;-63
2023/04/24 05:45:35;;;;;;;84.20;25.73;;;;;;;;;;6305732;28;20201;-63
2023/04/24 05:48:36;;;;;;;72.83;25.23;;;;;;;;;;6293693;28;20280;-63
2023/04/24 05:51:39;;;;;;;57.43;22.53;;;;;;;;;;6300787;28;20242;-63
2023/04/24 05:54:40;;;;;;;58.63;21.73;;;;;;;;;;6282055;28;20323;-63
2023/04/24 05:57:41;;;;;;;55.53;25.03;;;;;;;;;;6278172;28;20353;-62
2023/04/24 06:00:43;;;;;;;68.53;25.77;;;;;;;;;;6298462;28;20224;-62
2023/04/24 06:03:44;;;;;;;73.03;26.83;;;;;;;;;;6295517;28;20193;-62
2023/04/24 06:06:45;;;;;;;47.70;25.03;;;;;;;;;;6271056;28;20209;-62
2023/04/24 06:09:47;;;;;;;47.20;24.13;;;;;;;;;;6306402;28;20189;-61
2023/04/24 06:12:48;;;;;;;53.27;23.97;;;;;;;;;;6302487;28;20223;-61
2023/04/24 06:15:49;;;;;;;59.70;24.47;;;;;;;;;;6299296;28;20534;-63
2023/04/24 06:18:50;;;;;;;72.60;23.43;;;;;;;;;;6278478;28;20220;-63
2023/04/24 06:21:51;;;;;;;79.77;25.10;;;;;;;;;;6266680;28;20527;-63
2023/04/24 06:24:52;;;;;;;44.03;20.37;;;;;;;;;;6281403;28;20287;-63
2023/04/24 06:27:53;;;;;;;52.07;21.50;;;;;;;;;;6279745;28;20197;-63
2023/04/24 06:30:54;;;;;;;47.27;20.57;;;;;;;;;;6278189;28;20197;-63
2023/04/24 06:33:55;;;;;;;46.27;19.90;;;;;;;;;;6306750;28;20647;-63
2023/04/24 06:36:56;;;;;;;44.97;19.37;;;;;;;;;;6274634;28;20196;-63
2023/04/24 06:39:57;;;;;;;42.80;20.27;;;;;;;;;;6306233;28;20243;-63
2023/04/24 06:42:59;;;;;;;47.83;19.37;;;;;;;;;;6295300;28;20242;-63
2023/04/24 06:46:03;;;;;;;49.47;20.67;;;;;;;;;;6278731;28;20225;-63
2023/04/24 06:49:04;;;;;;;48.10;21.13;;;;;;;;;;6292119;28;20199;-63
2023/04/24 06:52:05;;;;;;;54.50;22.47;;;;;;;;;;6301341;28;20223;-63
2023/04/24 06:55:06;;;;;;;70.67;22.70;;;;;;;;;;6294659;28;20223;-63
2023/04/24 06:58:07;;;;;;;99.97;21.87;;;;;;;;;;6305498;28;20181;-63
2023/04/24 07:01:08;;;;;;;77.63;20.53;;;;;;;;;;6287587;28;20190;-63
2023/04/24 07:04:09;;;;;;;67.43;19.90;;;;;;;;;;6290557;28;20188;-63
2023/04/24 07:07:14;;;;;;;79.57;19.97;;;;;;;;;;6275286;28;20220;-63
2023/04/24 07:10:15;;;;;;;95.87;23.20;;;;;;;;;;6322037;28;20220;-63
2023/04/24 07:13:16;;;;;;;63.57;20.13;;;;;;;;;;6295161;28;20312;-63
2023/04/24 07:16:17;;;;;;;68.70;18.07;;;;;;;;;;6295425;28;20215;-63
2023/04/24 07:19:18;;;;;;;82.83;21.10;;;;;;;;;;6286766;28;20230;-63
2023/04/24 07:22:19;;;;;;;64.00;18.10;;;;;;;;;;6288516;28;20196;-63
2023/04/24 07:25:20;;;;;;;78.03;20.83;;;;;;;;;;6275546;28;20228;-63
2023/04/24 07:28:21;;;;;;;74.60;22.23;;;;;;;;;;6288941;28;20193;-64
2023/04/24 07:31:22;;;;;;;94.03;23.47;;;;;;;;;;6275503;28;20223;-63
2023/04/24 07:34:23;;;;;;;114.50;26.53;;;;;;;;;;6290951;28;20237;-63
2023/04/24 07:37:24;;;;;;;91.00;26.27;;;;;;;;;;6295780;28;20191;-64
2023/04/24 07:40:25;;;;;;;81.23;25.13;;;;;;;;;;6310244;28;20193;-64
2023/04/24 07:43:26;;;;;;;117.13;29.47;;;;;;;;;;6278842;28;20194;-64
2023/04/24 07:46:29;;;;;;;91.57;25.90;;;;;;;;;;6287782;28;20236;-64
2023/04/24 07:49:30;;;;;;;83.40;28.37;;;;;;;;;;6285829;28;20233;-64
2023/04/24 07:52:31;;;;;;;47.97;22.67;;;;;;;;;;6281085;28;20189;-64
2023/04/24 07:55:32;;;;;;;93.23;28.53;;;;;;;;;;6280764;28;20237;-64
2023/04/24 07:58:34;;;;;;;96.07;29.00;;;;;;;;;;6283000;28;20195;-64
2023/04/24 08:01:35;;;;;;;78.77;27.73;;;;;;;;;;6280330;28;20189;-64
2023/04/24 08:04:36;;;;;;;32.23;21.93;;;;;;;;;;6305461;28;20211;-64
2023/04/24 08:07:37;;;;;;;88.27;27.57;;;;;;;;;;6282662;28;20197;-64
2023/04/24 08:10:38;;;;;;;56.63;25.00;;;;;;;;;;6311537;28;20185;-64
2023/04/24 08:13:39;;;;;;;92.03;27.13;;;;;;;;;;6291914;28;20213;-64
2023/04/24 08:16:40;;;;;;;60.97;24.97;;;;;;;;;;6298203;28;20192;-64
2023/04/24 08:19:48;;;;;;;124.43;32.63;;;;;;;;;;6319385;28;20185;-64
2023/04/24 08:22:49;;;;;;;87.80;29.50;;;;;;;;;;6287914;28;20405;-64
2023/04/24 08:25:50;;;;;;;94.50;28.80;;;;;;;;;;6295586;28;20196;-64
2023/04/24 08:28:51;;;;;;;68.43;29.03;;;;;;;;;;6296013;28;20197;-64
2023/04/24 08:31:54;;;;;;;144.77;36.87;;;;;;;;;;6298743;28;20196;-64
2023/04/24 08:34:56;;;;;;;85.87;29.30;;;;;;;;;;6281240;28;20241;-64
2023/04/24 08:37:57;;;;;;;77.07;28.77;;;;;;;;;;6290849;28;20197;-64
2023/04/24 08:40:59;;;;;;;71.10;28.53;;;;;;;;;;6309098;28;20211;-64
2023/04/24 08:44:02;;;;;;;62.47;27.37;;;;;;;;;;6312839;28;20194;-64
2023/04/24 08:47:03;;;;;;;36.80;21.83;;;;;;;;;;6305790;28;20281;-64
2023/04/24 08:50:05;;;;;;;43.00;23.37;;;;;;;;;;6285772;28;20349;-64
2023/04/24 08:53:08;;;;;;;64.77;28.10;;;;;;;;;;6279660;28;20227;-64
2023/04/24 08:56:09;;;;;;;40.13;23.10;;;;;;;;;;6311313;28;20181;-64
2023/04/24 08:59:10;;;;;;;88.60;28.60;;;;;;;;;;6296997;28;20182;-64
2023/04/24 09:02:12;;;;;;;73.83;26.27;;;;;;;;;;6310301;28;20193;-64
2023/04/24 09:05:13;;;;;;;74.03;28.07;;;;;;;;;;6307708;28;20203;-64
2023/04/24 09:08:16;;;;;;;71.13;28.77;;;;;;;;;;6323571;28;20185;-64
2023/04/24 09:11:17;;;;;;;56.13;23.10;;;;;;;;;;6304708;28;20196;-64
2023/04/24 09:14:20;;;;;;;41.43;18.87;;;;;;;;;;6307686;28;20224;-64
2023/04/24 09:17:22;;;;;;;30.50;16.83;;;;;;;;;;6290270;28;20204;-64
2023/04/24 09:20:23;;;;;;;39.93;17.50;;;;;;;;;;6287815;28;20283;-64
2023/04/24 09:23:26;;;;;;;27.77;12.63;;;;;;;;;;6279478;28;20190;-64
2023/04/24 09:26:31;;;;;;;18.23;10.77;;;;;;;;;;6297623;28;20291;-64
2023/04/24 09:29:32;;;;;;;19.33;11.07;;;;;;;;;;6311643;28;20206;-64
2023/04/24 09:32:34;;;;;;;32.73;10.83;;;;;;;;;;6302306;28;20193;-64
2023/04/24 09:35:35;;;;;;;25.80;10.30;;;;;;;;;;6279257;28;20224;-64
2023/04/24 09:38:37;;;;;;;28.43;10.43;;;;;;;;;;6297524;28;20172;-64
2023/04/24 09:41:48;;;;;;;18.00;7.87;;;;;;;;;;6294528;28;20198;-64
2023/04/24 09:44:52;;;;;;;26.63;10.37;;;;;;;;;;6323901;28;20251;-64
2023/04/24 09:47:56;;;;;;;22.27;7.93;;;;;;;;;;6275795;28;20222;-64
2023/04/24 09:50:57;;;;;;;13.67;6.13;;;;;;;;;;6301549;28;20216;-64
2023/04/24 09:53:58;;;;;;;12.33;5.83;;;;;;;;;;6310203;28;20332;-64
2023/04/24 09:57:00;;;;;;;10.03;6.37;;;;;;;;;;6277162;28;20196;-64
2023/04/24 10:00:01;;;;;;;20.40;9.63;;;;;;;;;;6318080;28;20188;-64
2023/04/24 10:03:05;;;;;;;21.43;9.93;;;;;;;;;;6289970;28;20199;-64
2023/04/24 10:06:08;;;;;;;29.17;10.87;;;;;;;;;;6287854;28;20190;-64
2023/04/24 10:09:11;;;;;;;17.90;8.47;;;;;;;;;;6297307;28;20228;-64
2023/04/24 10:12:13;;;;;;;13.00;8.00;;;;;;;;;;6295193;28;20242;-64
2023/04/24 10:15:16;;;;;;;8.17;5.50;;;;;;;;;;6296451;28;20237;-64
2023/04/24 10:18:17;;;;;;;7.47;5.17;;;;;;;;;;6307593;28;20193;-64
2023/04/24 10:21:18;;;;;;;8.97;5.63;;;;;;;;;;6288475;28;20190;-64
2023/04/24 10:24:22;;;;;;;6.90;4.73;;;;;;;;;;6293440;28;20216;-64
2023/04/24 10:27:24;;;;;;;6.70;4.53;;;;;;;;;;6289370;28;20283;-64
2023/04/24 10:30:26;;;;;;;9.17;4.57;;;;;;;;;;6300781;28;20280;-64
2023/04/24 10:33:28;;;;;;;6.43;4.83;;;;;;;;;;6285580;28;20217;-64
2023/04/24 10:36:32;;;;;;;9.83;4.40;;;;;;;;;;6300833;28;20237;-64
2023/04/24 10:39:34;;;;;;;4.80;3.97;;;;;;;;;;6311964;28;20208;-64
2023/04/24 10:42:41;;;;;;;8.77;4.90;;;;;;;;;;6284241;28;20182;-64
2023/04/24 10:46:00;;;;;;;7.27;3.73;;;;;;;;;;6291069;28;20280;-64
2023/04/24 10:49:06;;;;;;;4.27;3.47;;;;;;;;;;6311630;28;20193;-64
2023/04/24 10:52:09;;;;;;;5.33;3.10;;;;;;;;;;6310437;28;20192;-64
2023/04/24 10:55:10;;;;;;;3.97;2.40;;;;;;;;;;6312042;28;20227;-64
2023/04/24 10:58:12;;;;;;;6.50;2.87;;;;;;;;;;6299437;28;20249;-64
2023/04/24 11:01:27;;;;;;;3.90;2.20;;;;;;;;;;6315716;28;20601;-64
2023/04/24 11:04:32;;;;;;;5.10;2.53;;;;;;;;;;6314304;28;20194;-64
2023/04/24 11:07:52;;;;;;;3.93;2.77;;;;;;;;;;6312925;28;20201;-64
2023/04/24 11:10:58;;;;;;;5.23;2.50;;;;;;;;;;6312557;28;20293;-64
2023/04/24 11:13:59;;;;;;;4.27;2.97;;;;;;;;;;6293116;28;20217;-66
2023/04/24 11:17:00;;;;;;;2.90;2.70;;;;;;;;;;6315438;28;20184;-64
2023/04/24 11:20:04;;;;;;;3.27;2.97;;;;;;;;;;6284171;28;20201;-64
2023/04/24 11:23:07;;;;;;;3.00;2.23;;;;;;;;;;6308495;28;20250;-64
2023/04/24 11:26:18;;;;;;;6.67;2.80;;;;;;;;;;6280610;28;20196;-63
2023/04/24 11:29:21;;;;;;;2.60;2.40;;;;;;;;;;6315000;28;20189;-63
2023/04/24 11:32:28;;;;;;;3.57;2.40;;;;;;;;;;6318920;28;20260;-63
2023/04/24 11:35:30;;;;;;;3.53;2.10;;;;;;;;;;6297702;28;20233;-63
2023/04/24 11:38:31;;;;;;;3.03;1.93;;;;;;;;;;6304185;28;20185;-63
2023/04/24 11:41:34;;;;;;;3.13;2.30;;;;;;;;;;6309970;28;20189;-63
2023/04/24 11:44:37;;;;;;;3.60;2.10;;;;;;;;;;6291560;28;20273;-63
2023/04/24 11:47:38;;;;;;;2.20;2.00;;;;;;;;;;6309216;28;20196;-63
2023/04/24 11:50:39;;;;;;;2.37;1.93;;;;;;;;;;6327908;28;20241;-62
2023/04/24 11:53:40;;;;;;;1.60;1.30;;;;;;;;;;6301603;28;20219;-64
2023/04/24 11:56:45;;;;;;;2.10;1.53;;;;;;;;;;6307087;28;20219;-62
2023/04/24 11:59:46;;;;;;;1.93;1.67;;;;;;;;;;6321657;28;20185;-61
2023/04/24 12:02:48;;;;;;;1.50;1.40;;;;;;;;;;6297065;28;20197;-61
2023/04/24 12:05:49;;;;;;;2.00;1.27;;;;;;;;;;6315273;28;20193;-61
2023/04/24 12:08:54;;;;;;;1.87;1.43;;;;;;;;;;6282800;28;20250;-61
2023/04/24 12:12:00;;;;;;;1.73;1.33;;;;;;;;;;6297482;28;20218;-62
2023/04/24 12:15:02;;;;;;;1.77;1.27;;;;;;;;;;6315820;28;20209;-62
2023/04/24 12:18:04;;;;;;;2.33;1.30;;;;;;;;;;6284684;28;20296;-62
2023/04/24 12:21:17;;;;;;;2.03;1.07;;;;;;;;;;6298254;28;20261;-61
2023/04/24 12:24:18;;;;;;;2.67;0.90;;;;;;;;;;6294909;28;20200;-61
2023/04/24 12:27:20;;;;;;;2.07;0.87;;;;;;;;;;6302895;28;20197;-62
2023/04/24 12:30:22;;;;;;;0.90;0.80;;;;;;;;;;6291792;28;20193;-62
2023/04/24 12:33:23;;;;;;;1.67;1.30;;;;;;;;;;6299575;28;20218;-62
2023/04/24 12:36:24;;;;;;;2.03;1.20;;;;;;;;;;6290194;28;20236;-62
2023/04/24 12:39:26;;;;;;;1.53;1.13;;;;;;;;;;6275792;28;20197;-64
2023/04/24 12:42:31;;;;;;;1.83;1.17;;;;;;;;;;6301092;28;20201;-65
2023/04/24 12:45:32;;;;;;;1.03;0.97;;;;;;;;;;6296643;28;20185;-64
2023/04/24 12:48:33;;;;;;;0.57;0.50;;;;;;;;;;6302114;28;20198;-67
2023/04/24 12:51:34;;;;;;;0.40;0.40;;;;;;;;;;6292907;28;20227;-66
2023/04/24 12:54:35;;;;;;;2.07;0.57;;;;;;;;;;6311051;28;20300;-66
2023/04/24 12:57:37;;;;;;;1.23;0.70;;;;;;;;;;6312839;28;20193;-65
2023/04/24 13:00:39;;;;;;;0.77;0.60;;;;;;;;;;6304499;28;20187;-66
2023/04/24 13:03:40;;;;;;;1.30;0.63;;;;;;;;;;6314974;28;20457;-66
2023/04/24 13:06:41;;;;;;;3.57;1.10;;;;;;;;;;6309260;28;20274;-65
2023/04/24 13:09:43;;;;;;;5.27;1.13;;;;;;;;;;6293989;28;20192;-64
2023/04/24 13:12:45;;;;;;;0.70;0.70;;;;;;;;;;6308720;28;20196;-63
2023/04/24 13:15:47;;;;;;;1.23;0.93;;;;;;;;;;6304746;28;20186;-63
2023/04/24 13:18:48;;;;;;;1.97;1.00;;;;;;;;;;6290452;28;20203;-63
2023/04/24 13:21:49;;;;;;;1.67;0.90;;;;;;;;;;6297252;28;20220;-63
2023/04/24 13:24:50;;;;;;;1.87;0.70;;;;;;;;;;6276949;28;20224;-63
2023/04/24 13:27:51;;;;;;;1.37;0.80;;;;;;;;;;6298208;28;20200;-63
2023/04/24 13:30:52;;;;;;;1.43;0.90;;;;;;;;;;6279567;28;20280;-63
2023/04/24 13:33:53;;;;;;;0.70;0.70;;;;;;;;;;6296708;28;20224;-63
2023/04/24 13:36:55;;;;;;;0.77;0.70;;;;;;;;;;6300509;28;20201;-63
2023/04/24 13:39:56;;;;;;;1.90;0.60;;;;;;;;;;6321390;28;20193;-63
2023/04/24 13:42:57;;;;;;;1.53;0.67;;;;;;;;;;6301143;28;20254;-63
2023/04/24 13:45:59;;;;;;;0.60;0.60;;;;;;;;;;6306151;28;20199;-63
2023/04/24 13:49:00;;;;;;;0.70;0.70;;;;;;;;;;6315709;28;20556;-64
2023/04/24 13:52:01;;;;;;;1.53;0.83;;;;;;;;;;6293380;28;20204;-65
2023/04/24 13:55:02;;;;;;;2.03;0.77;;;;;;;;;;6304083;28;20216;-64
2023/04/24 13:58:03;;;;;;;1.67;0.80;;;;;;;;;;6279415;28;20243;-64
2023/04/24 14:01:04;;;;;;;1.73;1.10;;;;;;;;;;6304101;28;20197;-64
2023/04/24 14:04:05;;;;;;;2.73;0.90;;;;;;;;;;6299657;28;20194;-64
2023/04/24 14:07:07;;;;;;;2.43;0.60;;;;;;;;;;6276575;28;20207;-64
2023/04/24 14:10:09;;;;;;;0.70;0.70;;;;;;;;;;6287448;28;20186;-64
2023/04/24 14:13:10;;;;;;;2.13;0.70;;;;;;;;;;6292924;28;20217;-64
2023/04/24 14:16:11;;;;;;;1.67;1.10;;;;;;;;;;6292140;28;20198;-63
2023/04/24 14:19:12;;;;;;;1.60;1.00;;;;;;;;;;6286962;28;20269;-64
2023/04/24 14:22:13;;;;;;;1.50;1.00;;;;;;;;;;6292484;28;20189;-64
2023/04/24 14:25:15;;;;;;;1.93;1.00;;;;;;;;;;6314104;28;20197;-64
2023/04/24 14:28:16;;;;;;;1.10;1.10;;;;;;;;;;6305832;28;20247;-64
2023/04/24 14:31:17;;;;;;;1.20;1.00;;;;;;;;;;6295569;28;20207;-64
2023/04/24 14:34:19;;;;;;;2.17;1.07;;;;;;;;;;6270151;28;20329;-64
2023/04/24 14:37:20;;;;;;;1.13;0.80;;;;;;;;;;6300300;28;20195;-64
2023/04/24 14:40:21;;;;;;;2.00;0.93;;;;;;;;;;6275709;28;20185;-64
2023/04/24 14:43:22;;;;;;;1.10;1.00;;;;;;;;;;6296084;28;20220;-64
2023/04/24 14:46:23;;;;;;;3.07;1.20;;;;;;;;;;6289270;28;20201;-63
2023/04/24 14:49:24;;;;;;;3.47;1.00;;;;;;;;;;6284545;28;20190;-64
2023/04/24 14:52:25;;;;;;;2.20;1.00;;;;;;;;;;6301174;28;20197;-64
2023/04/24 14:55:26;;;;;;;1.07;0.93;;;;;;;;;;6302997;28;20232;-63
2023/04/24 14:58:28;;;;;;;1.80;1.07;;;;;;;;;;6294434;28;20229;-64
2023/04/24 15:01:29;;;;;;;1.43;1.00;;;;;;;;;;6290480;28;20246;-64
2023/04/24 15:04:30;;;;;;;1.43;1.17;;;;;;;;;;6305505;28;20197;-64
2023/04/24 15:07:32;;;;;;;1.30;1.10;;;;;;;;;;6295226;28;20197;-63
2023/04/24 15:10:33;;;;;;;3.53;1.70;;;;;;;;;;6273179;28;20198;-63
2023/04/24 15:13:34;;;;;;;3.13;1.10;;;;;;;;;;6314793;28;20220;-63
2023/04/24 15:16:35;;;;;;;1.47;1.37;;;;;;;;;;6287423;28;20187;-63
2023/04/24 15:19:36;;;;;;;1.50;1.30;;;;;;;;;;6304592;28;20240;-63
2023/04/24 15:22:37;;;;;;;1.60;1.40;;;;;;;;;;6296709;28;20200;-64
2023/04/24 15:25:39;;;;;;;4.20;1.23;;;;;;;;;;6279856;28;20232;-64
2023/04/24 15:28:40;;;;;;;4.20;1.90;;;;;;;;;;6305695;28;20232;-63
2023/04/24 15:31:41;;;;;;;1.63;1.43;;;;;;;;;;6290883;28;20282;-64
2023/04/24 15:34:42;;;;;;;4.07;1.50;;;;;;;;;;6279994;28;20597;-64
2023/04/24 15:37:43;;;;;;;1.87;1.47;;;;;;;;;;6293811;28;20197;-64
2023/04/24 15:40:44;;;;;;;6.10;2.00;;;;;;;;;;6277516;28;20204;-63
2023/04/24 15:43:45;;;;;;;1.70;1.60;;;;;;;;;;6293650;28;20209;-63
2023/04/24 15:46:46;;;;;;;2.10;1.17;;;;;;;;;;6291369;28;20228;-63
2023/04/24 15:49:48;;;;;;;0.70;0.70;;;;;;;;;;6292263;28;20195;-63
2023/04/24 15:52:49;;;;;;;0.67;0.67;;;;;;;;;;6305788;28;20221;-63
2023/04/24 15:55:56;;;;;;;2.77;0.90;;;;;;;;;;6298474;28;20197;-63
2023/04/24 15:58:57;;;;;;;1.33;1.00;;;;;;;;;;6301487;28;20250;-63
2023/04/24 16:01:59;;;;;;;1.10;1.00;;;;;;;;;;6284184;28;20198;-63
2023/04/24 16:05:00;;;;;;;1.30;1.20;;;;;;;;;;6269431;28;20251;-63
2023/04/24 16:08:01;;;;;;;1.57;1.00;;;;;;;;;;6271730;28;20194;-63
2023/04/24 16:11:02;;;;;;;1.67;1.20;;;;;;;;;;6285043;28;20193;-63
2023/04/24 16:14:03;;;;;;;2.20;1.10;;;;;;;;;;6276986;28;20217;-63
2023/04/24 16:17:04;;;;;;;4.03;1.30;;;;;;;;;;6297698;28;20215;-63
2023/04/24 16:20:06;;;;;;;1.50;1.20;;;;;;;;;;6298723;28;20215;-63
2023/04/24 16:23:07;;;;;;;1.20;1.10;;;;;;;;;;6281140;28;20201;-63
2023/04/24 16:26:08;;;;;;;5.17;1.20;;;;;;;;;;6278186;28;20235;-63
2023/04/24 16:29:09;;;;;;;1.27;0.80;;;;;;;;;;6309617;28;20196;-63
2023/04/24 16:32:10;;;;;;;2.50;1.40;;;;;;;;;;6292497;28;20181;-63
2023/04/24 16:35:11;;;;;;;2.33;1.37;;;;;;;;;;6302656;28;20233;-63
2023/04/24 16:38:12;;;;;;;3.37;2.20;;;;;;;;;;6279999;28;20216;-62
2023/04/24 16:41:13;;;;;;;2.90;2.07;;;;;;;;;;6314545;28;20241;-63
2023/04/24 16:44:14;;;;;;;2.63;1.80;;;;;;;;;;6279339;28;20207;-63
2023/04/24 16:47:16;;;;;;;2.53;1.73;;;;;;;;;;6300502;28;20189;-64
2023/04/24 16:50:17;;;;;;;2.37;1.83;;;;;;;;;;6299518;28;20201;-64
2023/04/24 16:53:18;;;;;;;5.73;3.50;;;;;;;;;;6296144;28;20311;-63
2023/04/24 16:56:19;;;;;;;5.47;2.90;;;;;;;;;;6285771;28;20205;-63
2023/04/24 16:59:20;;;;;;;5.07;2.27;;;;;;;;;;6319164;28;20208;-63
2023/04/24 17:02:21;;;;;;;4.53;2.50;;;;;;;;;;6304150;28;20181;-64
2023/04/24 17:05:22;;;;;;;6.43;3.23;;;;;;;;;;6295757;28;20193;-63
2023/04/24 17:08:24;;;;;;;4.77;2.57;;;;;;;;;;6278541;28;20197;-63
2023/04/24 17:11:26;;;;;;;3.00;2.57;;;;;;;;;;6297578;28;20299;-63
2023/04/24 17:14:28;;;;;;;4.20;3.80;;;;;;;;;;6285307;28;20275;-62
2023/04/24 17:17:29;;;;;;;4.50;2.77;;;;;;;;;;6297978;28;20251;-63
2023/04/24 17:20:30;;;;;;;9.77;4.47;;;;;;;;;;6290516;28;20213;-65
2023/04/24 17:23:31;;;;;;;5.80;5.20;;;;;;;;;;6287658;28;20249;-62
2023/04/24 17:26:33;;;;;;;6.20;3.90;;;;;;;;;;6277305;28;20250;-63
2023/04/24 17:29:34;;;;;;;4.43;3.53;;;;;;;;;;6316495;28;20197;-63
2023/04/24 17:32:35;;;;;;;4.83;3.37;;;;;;;;;;6298049;28;20261;-63
2023/04/24 17:35:36;;;;;;;2.73;2.37;;;;;;;;;;6296184;28;20248;-63
2023/04/24 17:38:39;;;;;;;4.93;3.40;;;;;;;;;;6281797;28;20193;-63
2023/04/24 17:41:41;;;;;;;4.50;3.37;;;;;;;;;;6306843;28;20212;-63
2023/04/24 17:44:42;;;;;;;3.60;2.97;;;;;;;;;;6292840;28;20193;-62
2023/04/24 17:47:43;;;;;;;3.33;2.93;;;;;;;;;;6300452;28;20279;-63
2023/04/24 17:50:46;;;;;;;6.13;2.90;;;;;;;;;;6303295;28;20223;-63